createdAt,value
2023-03-06T00:00:53.670Z,13.50
2023-03-06T00:03:24.049Z,12.07
2023-03-06T00:05:50.761Z,13.63
2023-03-06T00:08:20.188Z,13.27
2023-03-06T00:10:49.028Z,14.75
2023-03-06T00:13:23.593Z,15.57
2023-03-06T00:15:59.706Z,14.98
2023-03-06T00:18:28.712Z,13.68
2023-03-06T00:20:59.833Z,13.23
2023-03-06T00:23:27.385Z,17.52
2023-03-06T00:25:54.001Z,12.75
2023-03-06T00:28:20.600Z,15.07
2023-03-06T00:30:49.330Z,14.02
2023-03-06T00:33:16.209Z,15.02
2023-03-06T00:35:45.473Z,15.10
2023-03-06T00:38:15.229Z,18.40
2023-03-06T00:40:41.798Z,16.90
2023-03-06T00:43:16.843Z,14.20
2023-03-06T00:45:43.446Z,17.33
2023-03-06T00:48:24.620Z,15.18
2023-03-06T00:50:51.930Z,17.73
2023-03-06T00:53:19.325Z,17.35
2023-03-06T00:55:46.020Z,16.13
2023-03-06T00:58:15.534Z,17.08
2023-03-06T01:00:42.303Z,16.73
2023-03-06T01:03:12.502Z,18.55
2023-03-06T01:05:45.905Z,18.88
2023-03-06T01:08:16.091Z,17.88
2023-03-06T01:10:45.173Z,16.00
2023-03-06T01:13:13.794Z,17.55
2023-03-06T01:15:40.570Z,17.42
2023-03-06T01:18:09.378Z,20.58
2023-03-06T01:20:39.455Z,19.42
2023-03-06T01:23:07.409Z,16.65
2023-03-06T01:25:36.161Z,18.85
2023-03-06T01:28:05.021Z,19.60
2023-03-06T01:30:40.073Z,21.38
2023-03-06T01:33:11.522Z,20.73
2023-03-06T01:35:41.742Z,19.20
2023-03-06T01:38:11.629Z,23.83
2023-03-06T01:40:38.777Z,22.65
2023-03-06T01:43:23.862Z,22.80
2023-03-06T01:45:57.043Z,23.33
2023-03-06T01:48:26.668Z,23.25
2023-03-06T01:50:59.143Z,21.45
2023-03-06T01:53:28.238Z,22.20
2023-03-06T01:55:55.283Z,20.58
2023-03-06T01:58:26.365Z,23.30
2023-03-06T02:00:53.203Z,24.75
2023-03-06T02:03:25.107Z,20.52
2023-03-06T02:05:59.917Z,21.98
2023-03-06T02:08:31.356Z,21.90
2023-03-06T02:11:22.093Z,23.65
2023-03-06T02:13:53.340Z,23.73
2023-03-06T02:16:26.687Z,24.23
2023-03-06T02:19:03.898Z,26.55
2023-03-06T02:21:37.246Z,25.98
2023-03-06T02:24:36.194Z,25.85
2023-03-06T02:27:07.318Z,25.55
2023-03-06T02:29:35.525Z,23.90
2023-03-06T02:32:13.771Z,24.58
2023-03-06T02:34:40.327Z,23.13
2023-03-06T02:37:09.230Z,24.70
2023-03-06T02:39:44.042Z,23.83
2023-03-06T02:42:19.001Z,22.52
2023-03-06T02:44:47.768Z,22.35
2023-03-06T02:47:17.135Z,21.42
2023-03-06T02:49:47.987Z,25.30
2023-03-06T02:52:14.685Z,23.13
2023-03-06T02:54:42.385Z,20.58
2023-03-06T02:57:12.151Z,24.42
2023-03-06T02:59:41.255Z,22.42
2023-03-06T03:02:09.492Z,26.75
2023-03-06T03:04:38.731Z,23.05
2023-03-06T03:07:08.810Z,26.77
2023-03-06T03:09:39.784Z,27.88
2023-03-06T03:12:07.019Z,30.50
2023-03-06T03:14:35.759Z,30.70
2023-03-06T03:17:04.909Z,29.50
2023-03-06T03:19:35.923Z,33.10
2023-03-06T03:22:02.686Z,26.70
2023-03-06T03:24:29.264Z,36.03
2023-03-06T03:27:02.037Z,34.67
2023-03-06T03:29:28.871Z,37.13
2023-03-06T03:31:58.928Z,37.53
2023-03-06T03:34:29.207Z,34.33
2023-03-06T03:36:58.108Z,31.20
2023-03-06T03:39:26.899Z,31.63
2023-03-06T03:42:00.131Z,33.95
2023-03-06T03:44:27.794Z,32.55
2023-03-06T03:46:59.822Z,31.85
2023-03-06T03:49:26.529Z,35.67
2023-03-06T03:51:57.285Z,31.83
2023-03-06T03:54:29.588Z,33.25
2023-03-06T03:56:56.775Z,32.53
2023-03-06T03:59:36.630Z,31.25
2023-03-06T04:02:15.770Z,33.30
2023-03-06T04:04:55.729Z,31.85
2023-03-06T04:07:25.357Z,29.55
2023-03-06T04:09:54.247Z,29.25
2023-03-06T04:12:21.892Z,28.77
2023-03-06T04:14:48.498Z,28.70
2023-03-06T04:17:16.427Z,33.53
2023-03-06T04:19:47.655Z,32.13
2023-03-06T04:22:14.433Z,33.65
2023-03-06T04:24:43.244Z,32.05
2023-03-06T04:27:09.915Z,29.63
2023-03-06T04:29:36.579Z,30.13
2023-03-06T04:32:12.276Z,28.83
2023-03-06T04:34:39.692Z,24.92
2023-03-06T04:37:06.814Z,26.85
2023-03-06T04:39:38.090Z,26.88
2023-03-06T04:42:07.348Z,25.45
2023-03-06T04:44:36.574Z,23.92
2023-03-06T04:47:03.441Z,23.73
2023-03-06T04:49:30.337Z,25.13
2023-03-06T04:51:57.967Z,21.10
2023-03-06T04:54:28.805Z,24.30
2023-03-06T04:56:55.607Z,23.77
2023-03-06T04:59:22.166Z,25.98
2023-03-06T05:01:48.783Z,23.35
2023-03-06T05:04:15.396Z,27.38
2023-03-06T05:06:46.202Z,26.05
2023-03-06T05:09:17.096Z,27.88
2023-03-06T05:11:46.581Z,27.75
2023-03-06T05:14:20.694Z,28.48
2023-03-06T05:16:53.536Z,31.27
2023-03-06T05:19:20.133Z,24.80
2023-03-06T05:21:48.193Z,26.33
2023-03-06T05:24:14.937Z,27.77
2023-03-06T05:26:47.200Z,27.45
2023-03-06T05:31:42.822Z,26.38
2023-03-06T05:34:13.774Z,24.13
2023-03-06T05:36:42.848Z,22.83
2023-03-06T05:39:09.741Z,26.35
2023-03-06T05:41:36.278Z,26.00
2023-03-06T05:44:13.150Z,23.42
2023-03-06T05:46:42.089Z,27.60
2023-03-06T05:49:11.598Z,22.90
2023-03-06T05:51:41.780Z,24.48
2023-03-06T05:54:10.732Z,25.52
2023-03-06T05:56:40.284Z,23.35
2023-03-06T05:59:15.899Z,27.58
2023-03-06T06:01:42.445Z,27.10
2023-03-06T06:04:11.398Z,26.42
2023-03-06T06:06:45.103Z,28.10
2023-03-06T06:09:16.971Z,28.45
2023-03-06T06:11:47.500Z,29.70
2023-03-06T06:14:14.684Z,29.48
2023-03-06T06:16:47.397Z,28.88
2023-03-06T06:19:20.398Z,32.15
2023-03-06T06:21:52.814Z,32.30
2023-03-06T06:24:24.089Z,34.00
2023-03-06T06:26:55.080Z,39.22
2023-03-06T06:29:24.437Z,45.70
2023-03-06T06:32:03.229Z,43.70
2023-03-06T06:34:32.247Z,43.75
2023-03-06T06:37:07.722Z,44.22
2023-03-06T06:39:34.266Z,43.80
2023-03-06T06:42:25.931Z,45.38
2023-03-06T06:44:51.295Z,45.35
2023-03-06T06:47:22.946Z,44.78
2023-03-06T06:49:54.451Z,48.70
2023-03-06T06:52:33.712Z,45.97
2023-03-06T06:55:02.821Z,45.90
2023-03-06T06:57:29.431Z,45.30
2023-03-06T06:59:58.411Z,47.40
2023-03-06T07:02:27.591Z,39.70
2023-03-06T07:05:04.305Z,40.63
2023-03-06T07:07:37.330Z,39.33
2023-03-06T07:10:15.445Z,37.28
2023-03-06T07:12:42.623Z,36.05
2023-03-06T07:15:11.871Z,36.42
2023-03-06T07:17:47.718Z,34.88
2023-03-06T07:20:16.298Z,39.50
2023-03-06T07:22:50.689Z,38.53
2023-03-06T07:25:23.392Z,39.70
2023-03-06T07:27:54.643Z,39.17
2023-03-06T07:30:28.010Z,41.25
2023-03-06T07:32:58.794Z,43.28
2023-03-06T07:35:26.040Z,41.00
2023-03-06T07:37:55.128Z,41.90
2023-03-06T07:40:24.492Z,40.00
2023-03-06T07:43:06.106Z,40.90
2023-03-06T07:45:44.511Z,38.78
2023-03-06T07:48:22.214Z,39.72
2023-03-06T07:51:03.922Z,37.88
2023-03-06T07:53:42.178Z,43.47
2023-03-06T07:56:09.440Z,41.78
2023-03-06T07:58:38.117Z,39.10
2023-03-06T08:01:10.338Z,43.58
2023-03-06T08:03:37.417Z,42.78
2023-03-06T08:06:27.526Z,43.47
2023-03-06T08:09:03.083Z,43.60
2023-03-06T08:11:38.610Z,41.45
2023-03-06T08:14:06.471Z,42.95
2023-03-06T08:16:33.125Z,40.00
2023-03-06T08:19:01.870Z,41.25
2023-03-06T08:21:28.672Z,44.40
2023-03-06T08:23:55.750Z,47.53
2023-03-06T08:26:24.929Z,46.35
2023-03-06T08:29:04.161Z,40.72
2023-03-06T08:31:40.362Z,40.00
2023-03-06T08:34:11.340Z,42.90
2023-03-06T08:36:40.447Z,43.25
2023-03-06T08:39:08.033Z,42.72
2023-03-06T08:41:35.469Z,44.35
2023-03-06T08:44:06.773Z,45.33
2023-03-06T08:46:34.517Z,41.97
2023-03-06T08:49:05.664Z,44.85
2023-03-06T08:51:33.721Z,37.60
2023-03-06T08:54:00.422Z,38.08
2023-03-06T08:56:30.071Z,34.38
2023-03-06T08:59:00.587Z,37.45
2023-03-06T09:01:29.777Z,38.55
2023-03-06T09:04:01.824Z,38.53
2023-03-06T09:06:39.387Z,36.72
2023-03-06T09:09:09.394Z,34.92
2023-03-06T09:11:41.638Z,35.83
2023-03-06T09:14:08.233Z,39.47
2023-03-06T09:16:38.097Z,35.13
2023-03-06T09:19:04.709Z,33.83
2023-03-06T09:21:34.022Z,37.88
2023-03-06T09:24:03.240Z,32.47
2023-03-06T09:26:45.107Z,37.72
2023-03-06T09:29:13.282Z,37.83
2023-03-06T09:31:41.097Z,36.20
2023-03-06T09:34:11.956Z,35.08
2023-03-06T09:36:54.989Z,34.00
2023-03-06T09:39:23.881Z,36.10
2023-03-06T09:41:56.619Z,37.17
2023-03-06T09:44:26.066Z,37.35
2023-03-06T09:47:10.540Z,33.03
2023-03-06T09:50:10.902Z,33.53
2023-03-06T09:53:02.607Z,36.13
2023-03-06T09:55:37.318Z,32.40
2023-03-06T09:58:25.235Z,34.05
2023-03-06T10:01:11.011Z,36.72
2023-03-06T10:03:49.348Z,33.95
2023-03-06T10:06:31.229Z,33.10
2023-03-06T10:09:18.490Z,35.40
2023-03-06T10:12:16.089Z,36.75
2023-03-06T10:14:57.796Z,33.42
2023-03-06T10:17:29.113Z,37.58
2023-03-06T10:19:57.991Z,34.90
2023-03-06T10:22:36.591Z,34.47
2023-03-06T10:25:27.741Z,34.70
2023-03-06T10:28:05.304Z,36.28
2023-03-06T10:31:00.452Z,38.92
2023-03-06T10:33:48.346Z,32.80
2023-03-06T10:36:19.561Z,32.38
2023-03-06T10:38:48.421Z,32.40
2023-03-06T10:41:38.075Z,36.40
2023-03-06T10:44:04.686Z,31.38
2023-03-06T10:46:45.229Z,34.97
2023-03-06T10:49:34.468Z,31.33
2023-03-06T10:52:22.625Z,34.42
2023-03-06T10:54:50.639Z,34.92
2023-03-06T10:57:24.108Z,31.77
2023-03-06T10:59:56.431Z,33.33
2023-03-06T11:02:31.304Z,31.73
2023-03-06T11:05:01.391Z,30.73
2023-03-06T11:07:36.873Z,25.23
2023-03-06T11:10:17.928Z,27.70
2023-03-06T11:13:01.247Z,27.80
2023-03-06T11:15:29.369Z,29.35
2023-03-06T11:18:04.320Z,27.27
2023-03-06T11:20:52.385Z,26.42
2023-03-06T11:23:40.543Z,25.10
2023-03-06T11:26:19.515Z,25.00
2023-03-06T11:29:01.352Z,31.88
2023-03-06T11:31:39.310Z,26.15
2023-03-06T11:34:18.442Z,30.88
2023-03-06T11:36:54.476Z,29.02
2023-03-06T11:39:36.238Z,24.42
2023-03-06T11:42:29.363Z,20.50
2023-03-06T11:45:30.753Z,27.70
2023-03-06T11:48:15.825Z,29.05
2023-03-06T11:50:48.506Z,28.73
2023-03-06T11:53:19.747Z,30.38
2023-03-06T11:56:10.828Z,27.20
2023-03-06T11:59:21.919Z,24.83
2023-03-06T12:02:21.484Z,24.75
2023-03-06T12:05:21.015Z,26.88
2023-03-06T12:08:17.300Z,22.10
2023-03-06T12:10:51.536Z,23.35
2023-03-06T12:13:43.103Z,24.92
2023-03-06T12:16:29.628Z,25.27
2023-03-06T12:19:25.960Z,23.92
2023-03-06T12:22:01.574Z,26.42
2023-03-06T12:25:07.635Z,29.50
2023-03-06T12:27:52.793Z,30.15
2023-03-06T12:30:51.643Z,26.70
2023-03-06T12:33:37.074Z,27.23
2023-03-06T12:36:33.290Z,30.35
2023-03-06T12:39:22.503Z,27.02
2023-03-06T12:42:23.236Z,28.67
2023-03-06T12:45:10.809Z,28.70
2023-03-06T12:47:44.239Z,23.73
2023-03-06T12:50:45.975Z,23.02
2023-03-06T12:53:28.500Z,20.58
2023-03-06T12:58:33.214Z,21.10
2023-03-06T13:01:39.060Z,20.42
2023-03-06T13:04:29.429Z,21.42
2023-03-06T13:07:14.738Z,20.30
2023-03-06T13:10:15.439Z,22.55
2023-03-06T13:13:19.627Z,25.00
2023-03-06T13:16:29.124Z,23.80
2023-03-06T13:19:03.710Z,26.15
2023-03-06T13:24:22.861Z,27.45
2023-03-06T13:27:01.041Z,29.95
2023-03-06T13:29:36.754Z,28.25
2023-03-06T13:32:15.010Z,32.13
2023-03-06T13:34:53.780Z,38.28
2023-03-06T13:37:37.094Z,33.75
2023-03-06T13:40:03.839Z,32.60
2023-03-06T13:42:43.427Z,28.67
2023-03-06T13:45:41.809Z,31.00
2023-03-06T13:48:43.160Z,26.55
2023-03-06T13:51:24.270Z,30.13
2023-03-06T13:54:24.392Z,27.35
2023-03-06T13:57:05.825Z,26.80
2023-03-06T14:00:09.562Z,27.60
2023-03-06T14:03:03.606Z,25.80
2023-03-06T14:05:51.443Z,26.73
2023-03-06T14:08:24.471Z,27.92
2023-03-06T14:11:09.138Z,26.13
2023-03-06T14:13:47.488Z,24.67
2023-03-06T14:16:21.791Z,25.95
2023-03-06T14:18:53.280Z,24.67
2023-03-06T14:21:44.389Z,27.17
2023-03-06T14:24:19.635Z,25.75
2023-03-06T14:26:50.098Z,25.27
2023-03-06T14:29:28.320Z,22.38
2023-03-06T14:32:04.592Z,22.27
2023-03-06T14:34:41.020Z,22.40
2023-03-06T14:37:20.400Z,20.70
2023-03-06T14:39:58.544Z,19.75
2023-03-06T14:42:29.373Z,19.73
2023-03-06T14:45:06.978Z,18.40
2023-03-06T14:47:36.806Z,20.80
2023-03-06T14:50:30.338Z,23.17
2023-03-06T14:53:05.541Z,17.98
2023-03-06T14:55:36.756Z,18.88
2023-03-06T14:58:10.021Z,20.25
2023-03-06T15:00:50.178Z,20.02
2023-03-06T15:03:27.681Z,19.35
2023-03-06T15:05:54.913Z,18.63
2023-03-06T15:08:27.465Z,19.90
2023-03-06T15:11:02.990Z,19.15
2023-03-06T15:13:33.530Z,19.55
2023-03-06T15:16:06.554Z,19.88
2023-03-06T15:18:56.918Z,21.48
2023-03-06T15:21:28.622Z,22.13
2023-03-06T15:24:00.364Z,20.52
2023-03-06T15:26:40.992Z,17.25
2023-03-06T15:29:10.749Z,20.63
2023-03-06T15:31:44.535Z,21.75
2023-03-06T15:34:23.288Z,21.23
2023-03-06T15:36:59.585Z,20.58
2023-03-06T15:39:36.082Z,33.95
2023-03-06T15:42:22.582Z,30.00
2023-03-06T15:44:56.194Z,22.80
2023-03-06T15:47:27.613Z,22.15
2023-03-06T15:49:58.802Z,24.10
2023-03-06T15:52:27.669Z,22.80
2023-03-06T15:54:59.753Z,21.27
2023-03-06T15:57:30.520Z,24.90
2023-03-06T16:00:01.822Z,23.67
2023-03-06T16:02:38.042Z,23.17
2023-03-06T16:05:14.526Z,22.83
2023-03-06T16:07:41.161Z,23.40
2023-03-06T16:10:13.511Z,22.90
2023-03-06T16:13:02.868Z,21.25
2023-03-06T16:15:32.925Z,24.17
2023-03-06T16:18:02.212Z,26.08
2023-03-06T16:20:30.258Z,25.20
2023-03-06T16:22:57.029Z,24.48
2023-03-06T16:25:26.278Z,23.27
2023-03-06T16:28:00.979Z,21.27
2023-03-06T16:30:32.911Z,23.88
2023-03-06T16:33:05.320Z,25.23
2023-03-06T16:35:37.362Z,23.55
2023-03-06T16:38:04.371Z,20.80
2023-03-06T16:40:42.837Z,27.77
2023-03-06T16:43:17.372Z,24.63
2023-03-06T16:45:44.569Z,29.98
2023-03-06T16:48:15.632Z,30.35
2023-03-06T16:50:42.374Z,31.45
2023-03-06T16:53:13.528Z,28.38
2023-03-06T16:55:40.091Z,30.55
2023-03-06T16:58:10.045Z,25.85
2023-03-06T17:00:36.878Z,29.70
2023-03-06T17:03:03.825Z,29.67
2023-03-06T17:05:35.408Z,25.30
2023-03-06T17:08:05.796Z,28.60
2023-03-06T17:10:32.459Z,25.30
2023-03-06T17:12:59.185Z,25.70
2023-03-06T17:15:26.317Z,24.73
2023-03-06T17:17:53.168Z,26.35
2023-03-06T17:20:26.670Z,27.73
2023-03-06T17:22:55.867Z,28.48
2023-03-06T17:25:22.845Z,29.98
2023-03-06T17:27:58.285Z,26.48
2023-03-06T17:30:27.322Z,28.20
2023-03-06T17:32:56.840Z,28.73
2023-03-06T17:35:23.426Z,28.70
2023-03-06T17:37:51.250Z,27.70
2023-03-06T17:40:20.037Z,28.73
2023-03-06T17:42:46.618Z,30.25
2023-03-06T17:45:16.081Z,30.13
2023-03-06T17:47:55.418Z,26.73
2023-03-06T17:50:25.165Z,28.88
2023-03-06T17:52:54.098Z,25.88
2023-03-06T17:55:24.254Z,27.02
2023-03-06T17:57:59.479Z,29.70
2023-03-06T18:00:26.160Z,24.00
2023-03-06T18:02:58.699Z,24.98
2023-03-06T18:05:28.896Z,27.65
2023-03-06T18:07:58.168Z,25.77
2023-03-06T18:10:27.365Z,29.15
2023-03-06T18:12:58.876Z,26.60
2023-03-06T18:15:33.423Z,28.17
2023-03-06T18:18:00.128Z,27.45
2023-03-06T18:20:33.984Z,25.88
2023-03-06T18:23:03.416Z,27.80
2023-03-06T18:25:31.282Z,27.27
2023-03-06T18:28:02.123Z,33.03
2023-03-06T18:30:29.066Z,31.48
2023-03-06T18:33:00.500Z,28.13
2023-03-06T18:35:35.986Z,28.08
2023-03-06T18:38:04.457Z,26.60
2023-03-06T18:40:33.477Z,28.48
2023-03-06T18:43:00.025Z,28.75
2023-03-06T18:45:28.712Z,29.60
2023-03-06T18:48:00.546Z,29.33
2023-03-06T18:50:27.108Z,27.25
2023-03-06T18:52:53.692Z,25.95
2023-03-06T18:55:20.242Z,27.27
2023-03-06T18:57:46.770Z,30.98
2023-03-06T19:00:19.150Z,28.00
2023-03-06T19:02:47.969Z,28.90
2023-03-06T19:05:14.799Z,25.73
2023-03-06T19:07:41.350Z,26.02
2023-03-06T19:10:10.538Z,28.20
2023-03-06T19:12:39.403Z,24.95
2023-03-06T19:15:09.398Z,27.63
2023-03-06T19:17:40.997Z,30.48
2023-03-06T19:20:10.363Z,20.63
2023-03-06T19:22:37.132Z,25.25
2023-03-06T19:25:10.760Z,28.27
2023-03-06T19:27:38.965Z,25.70
2023-03-06T19:30:10.791Z,27.88
2023-03-06T19:32:37.664Z,24.42
2023-03-06T19:35:06.765Z,34.80
2023-03-06T19:37:37.086Z,29.20
2023-03-06T19:40:07.001Z,26.95
2023-03-06T19:42:34.547Z,26.65
2023-03-06T19:45:01.219Z,27.45
2023-03-06T19:47:33.176Z,25.65
2023-03-06T19:50:02.237Z,26.85
2023-03-06T19:52:28.802Z,25.77
2023-03-06T19:54:57.819Z,27.23
2023-03-06T19:57:28.252Z,23.73
2023-03-06T19:59:56.057Z,24.70
2023-03-06T20:02:26.446Z,24.95
2023-03-06T20:04:57.007Z,25.83
2023-03-06T20:07:24.030Z,23.45
2023-03-06T20:09:51.016Z,28.20
2023-03-06T20:12:17.726Z,24.75
2023-03-06T20:14:46.005Z,24.30
2023-03-06T20:17:15.158Z,25.25
2023-03-06T20:19:46.017Z,26.25
2023-03-06T20:22:15.087Z,22.50
2023-03-06T20:24:41.706Z,24.25
2023-03-06T20:27:08.296Z,24.88
2023-03-06T20:29:35.829Z,26.40
2023-03-06T20:32:05.499Z,29.10
2023-03-06T20:34:32.067Z,25.80
2023-03-06T20:36:58.761Z,24.92
2023-03-06T20:39:29.462Z,25.42
2023-03-06T20:41:56.092Z,25.67
2023-03-06T20:44:23.012Z,28.20
2023-03-06T20:46:51.807Z,28.45
2023-03-06T20:49:21.577Z,25.08
2023-03-06T20:51:51.131Z,30.35
2023-03-06T20:54:17.845Z,30.20
2023-03-06T20:56:47.991Z,27.63
2023-03-06T20:59:17.315Z,28.40
2023-03-06T21:01:45.557Z,28.30
2023-03-06T21:04:14.818Z,31.42
2023-03-06T21:06:45.188Z,31.67
2023-03-06T21:09:13.505Z,30.08
2023-03-06T21:11:40.722Z,28.27
2023-03-06T21:14:13.408Z,28.02
2023-03-06T21:16:43.623Z,28.90
2023-03-06T21:19:10.669Z,27.48
2023-03-06T21:21:37.317Z,28.33
2023-03-06T21:24:05.303Z,27.67
2023-03-06T21:26:36.448Z,28.35
2023-03-06T21:29:06.256Z,26.23
2023-03-06T21:31:35.868Z,27.35
2023-03-06T21:34:06.157Z,30.00
2023-03-06T21:36:33.002Z,27.65
2023-03-06T21:39:05.993Z,25.30
2023-03-06T21:41:34.426Z,29.98
2023-03-06T21:44:06.022Z,27.35
2023-03-06T21:46:36.203Z,27.48
2023-03-06T21:49:04.776Z,30.30
2023-03-06T21:51:31.519Z,27.65
2023-03-06T21:53:58.854Z,25.10
2023-03-06T21:56:27.821Z,28.48
2023-03-06T21:58:55.262Z,28.10
2023-03-06T22:01:30.594Z,25.80
2023-03-06T22:03:58.355Z,26.75
2023-03-06T22:06:28.746Z,24.00
2023-03-06T22:08:59.710Z,22.17
2023-03-06T22:11:29.601Z,21.60
2023-03-06T22:13:58.847Z,25.00
2023-03-06T22:16:29.413Z,22.45
2023-03-06T22:18:58.850Z,22.48
2023-03-06T22:21:28.843Z,21.55
2023-03-06T22:23:57.580Z,17.23
2023-03-06T22:26:29.314Z,17.65
2023-03-06T22:29:02.720Z,21.48
2023-03-06T22:31:29.431Z,17.83
2023-03-06T22:34:00.340Z,18.13
2023-03-06T22:36:31.505Z,17.95
2023-03-06T22:39:02.303Z,15.45
2023-03-06T22:41:34.448Z,17.60
2023-03-06T22:44:04.848Z,16.17
2023-03-06T22:46:33.779Z,15.75
2023-03-06T22:49:01.135Z,16.70
2023-03-06T22:51:33.412Z,14.00
2023-03-06T22:56:27.796Z,12.25
2023-03-06T22:58:54.440Z,15.27
2023-03-06T23:01:28.691Z,15.98
2023-03-06T23:03:57.947Z,12.65
2023-03-06T23:06:26.720Z,14.55
2023-03-06T23:08:59.709Z,13.43
2023-03-06T23:11:30.499Z,13.07
2023-03-06T23:14:19.652Z,13.65
2023-03-06T23:17:06.372Z,12.52
2023-03-06T23:19:56.471Z,14.02
2023-03-06T23:22:49.053Z,14.18
2023-03-06T23:25:34.679Z,11.30
2023-03-06T23:28:01.690Z,12.70
2023-03-06T23:30:30.630Z,14.18
2023-03-06T23:33:00.225Z,13.40
2023-03-06T23:35:30.900Z,10.90
2023-03-06T23:37:57.547Z,13.10
2023-03-06T23:40:26.906Z,11.90
2023-03-06T23:43:07.004Z,10.38
2023-03-06T23:45:33.722Z,11.32
2023-03-06T23:48:00.267Z,13.00
2023-03-06T23:50:29.115Z,9.43
2023-03-06T23:53:01.136Z,8.57
2023-03-06T23:55:27.767Z,9.70
2023-03-06T23:58:01.087Z,9.30
